sensor_id;sensor_type;location;lat;lon;timestamp;pressure;altitude;pressure_sealevel;temperature;humidity
40460;BME280;26164;51.138;16.952;2023-12-20T00:01:35;74315.00;;;-146.39;31.83
40460;BME280;26164;51.138;16.952;2023-12-20T00:04:03;74323.19;;;-146.39;31.63
40460;BME280;26164;51.138;16.952;2023-12-20T00:06:30;74410.91;;;-146.39;32.35
40460;BME280;26164;51.138;16.952;2023-12-20T00:08:57;74421.13;;;-146.39;32.18
40460;BME280;26164;51.138;16.952;2023-12-20T00:11:25;74290.53;;;-146.39;31.33
40460;BME280;26164;51.138;16.952;2023-12-20T00:14:06;74282.38;;;-146.39;31.14
40460;BME280;26164;51.138;16.952;2023-12-20T00:16:43;74270.13;;;-146.39;31.05
40460;BME280;26164;51.138;16.952;2023-12-20T00:19:09;74294.63;;;-146.39;31.40
40460;BME280;26164;51.138;16.952;2023-12-20T00:21:35;74237.47;;;-146.39;31.28
40460;BME280;26164;51.138;16.952;2023-12-20T00:24:02;74200.75;;;-146.39;30.79
40460;BME280;26164;51.138;16.952;2023-12-20T00:26:46;74421.13;;;-146.39;32.47
40460;BME280;26164;51.138;16.952;2023-12-20T00:29:13;74453.75;;;-146.39;32.68
40460;BME280;26164;51.138;16.952;2023-12-20T00:31:40;74370.09;;;-146.39;32.00
40460;BME280;26164;51.138;16.952;2023-12-20T00:34:07;74347.66;;;-146.39;31.89
40460;BME280;26164;51.138;16.952;2023-12-20T00:36:33;74400.72;;;-146.39;32.18
40460;BME280;26164;51.138;16.952;2023-12-20T00:38:59;74425.19;;;-146.39;32.53
40460;BME280;26164;51.138;16.952;2023-12-20T00:41:28;74253.81;;;-146.39;31.53
40460;BME280;26164;51.138;16.952;2023-12-20T00:43:56;74384.38;;;-146.39;32.06
40460;BME280;26164;51.138;16.952;2023-12-20T00:46:22;74415.00;;;-146.39;32.27
40460;BME280;26164;51.138;16.952;2023-12-20T00:49:03;74423.16;;;-146.39;32.81
40460;BME280;26164;51.138;16.952;2023-12-20T00:51:44;74437.44;;;-146.39;32.90
40460;BME280;26164;51.138;16.952;2023-12-20T00:54:25;74468.03;;;-146.39;33.23
40460;BME280;26164;51.138;16.952;2023-12-20T00:56:57;74431.31;;;-146.39;33.16
40460;BME280;26164;51.138;16.952;2023-12-20T00:59:23;74384.38;;;-146.39;32.86
40460;BME280;26164;51.138;16.952;2023-12-20T01:01:54;74400.72;;;-146.39;32.88
40460;BME280;26164;51.138;16.952;2023-12-20T01:04:20;74425.19;;;-146.39;32.77
40460;BME280;26164;51.138;16.952;2023-12-20T01:06:53;74359.91;;;-146.39;32.37
40460;BME280;26164;51.138;16.952;2023-12-20T01:09:20;74543.53;;;-146.39;34.31
40460;BME280;26164;51.138;16.952;2023-12-20T01:11:50;74423.16;;;-146.39;32.91
40460;BME280;26164;51.138;16.952;2023-12-20T01:14:29;74498.66;;;-146.39;34.01
40460;BME280;26164;51.138;16.952;2023-12-20T01:17:09;74539.47;;;-146.39;34.42
40460;BME280;26164;51.138;16.952;2023-12-20T01:19:38;74423.16;;;-146.39;33.43
40460;BME280;26164;51.138;16.952;2023-12-20T01:22:06;74427.25;;;-146.39;33.67
40460;BME280;26164;51.138;16.952;2023-12-20T01:24:34;74547.63;;;-146.39;34.49
40460;BME280;26164;51.138;16.952;2023-12-20T01:27:01;74447.63;;;-146.39;33.78
40460;BME280;26164;51.138;16.952;2023-12-20T01:29:33;74498.66;;;-146.39;33.84
40460;BME280;26164;51.138;16.952;2023-12-20T01:32:00;74572.09;;;-146.39;34.44
40460;BME280;26164;51.138;16.952;2023-12-20T01:34:44;74419.06;;;-146.39;34.01
40460;BME280;26164;51.138;16.952;2023-12-20T01:37:14;74457.84;;;-146.39;33.93
40460;BME280;26164;51.138;16.952;2023-12-20T01:39:41;74586.41;;;-146.39;34.77
40460;BME280;26164;51.138;16.952;2023-12-20T01:42:21;74457.84;;;-146.39;33.96
40460;BME280;26164;51.138;16.952;2023-12-20T01:44:48;74561.91;;;-146.39;34.67
40460;BME280;26164;51.138;16.952;2023-12-20T01:47:15;74490.50;;;-146.39;34.48
40460;BME280;26164;51.138;16.952;2023-12-20T01:49:44;74510.91;;;-146.39;34.23
40460;BME280;26164;51.138;16.952;2023-12-20T01:52:27;74506.81;;;-146.39;34.18
40460;BME280;26164;51.138;16.952;2023-12-20T01:55:08;74472.13;;;-146.39;33.99
40460;BME280;26164;51.138;16.952;2023-12-20T01:57:53;74445.59;;;-146.39;33.56
40460;BME280;26164;51.138;16.952;2023-12-20T02:00:25;74421.13;;;-146.39;33.76
40460;BME280;26164;51.138;16.952;2023-12-20T02:02:53;74574.16;;;-146.39;34.47
40460;BME280;26164;51.138;16.952;2023-12-20T02:08:21;74486.41;;;-146.39;33.86
40460;BME280;26164;51.138;16.952;2023-12-20T02:11:06;74535.38;;;-146.39;34.55
40460;BME280;26164;51.138;16.952;2023-12-20T02:13:56;74421.13;;;-146.39;33.46
40460;BME280;26164;51.138;16.952;2023-12-20T02:16:46;74490.50;;;-146.39;33.90
40460;BME280;26164;51.138;16.952;2023-12-20T02:19:30;74441.53;;;-146.39;33.64
40460;BME280;26164;51.138;16.952;2023-12-20T02:22:12;74551.72;;;-146.39;34.49
40460;BME280;26164;51.138;16.952;2023-12-20T02:24:39;74619.03;;;-146.39;35.01
40460;BME280;26164;51.138;16.952;2023-12-20T02:27:46;74359.91;;;-146.39;32.85
40460;BME280;26164;51.138;16.952;2023-12-20T02:30:32;74363.97;;;-146.39;33.00
40460;BME280;26164;51.138;16.952;2023-12-20T02:33:42;74388.47;;;-146.39;32.79
40460;BME280;26164;51.138;16.952;2023-12-20T02:36:10;74441.53;;;-146.39;33.08
40460;BME280;26164;51.138;16.952;2023-12-20T02:38:38;74710.88;;;-146.39;35.22
40460;BME280;26164;51.138;16.952;2023-12-20T02:41:19;74461.94;;;-146.39;33.46
40460;BME280;26164;51.138;16.952;2023-12-20T02:44:11;74410.91;;;-146.39;33.28
40460;BME280;26164;51.138;16.952;2023-12-20T02:46:57;74525.19;;;-146.39;33.79
40460;BME280;26164;51.138;16.952;2023-12-20T02:49:39;74506.81;;;-146.39;33.77
40460;BME280;26164;51.138;16.952;2023-12-20T02:52:28;74445.59;;;-146.39;33.75
40460;BME280;26164;51.138;16.952;2023-12-20T02:55:13;74449.69;;;-146.39;33.50
40460;BME280;26164;51.138;16.952;2023-12-20T02:58:04;74441.53;;;-146.39;32.89
40460;BME280;26164;51.138;16.952;2023-12-20T03:00:48;74543.53;;;-146.39;33.91
40460;BME280;26164;51.138;16.952;2023-12-20T03:03:30;74396.63;;;-146.39;32.76
40460;BME280;26164;51.138;16.952;2023-12-20T03:06:15;74500.69;;;-146.39;33.65
40460;BME280;26164;51.138;16.952;2023-12-20T03:08:59;74476.22;;;-146.39;33.73
40460;BME280;26164;51.138;16.952;2023-12-20T03:11:40;74453.75;;;-146.39;33.51
40460;BME280;26164;51.138;16.952;2023-12-20T03:14:23;74376.22;;;-146.39;33.27
40460;BME280;26164;51.138;16.952;2023-12-20T03:16:57;74519.06;;;-146.39;33.87
40460;BME280;26164;51.138;16.952;2023-12-20T03:19:25;74490.50;;;-146.39;33.49
40460;BME280;26164;51.138;16.952;2023-12-20T03:22:09;74514.97;;;-146.39;34.16
40460;BME280;26164;51.138;16.952;2023-12-20T03:25:14;74608.84;;;-146.39;34.59
40460;BME280;26164;51.138;16.952;2023-12-20T03:27:59;74619.03;;;-146.39;34.67
40460;BME280;26164;51.138;16.952;2023-12-20T03:30:44;74610.88;;;-146.39;34.48
40460;BME280;26164;51.138;16.952;2023-12-20T03:33:26;74788.41;;;-146.39;35.74
40460;BME280;26164;51.138;16.952;2023-12-20T03:36:11;74661.91;;;-146.39;34.64
40460;BME280;26164;51.138;16.952;2023-12-20T03:38:50;74555.78;;;-146.39;33.68
40460;BME280;26164;51.138;16.952;2023-12-20T03:41:16;74629.25;;;-146.39;34.34
40460;BME280;26164;51.138;16.952;2023-12-20T03:43:45;74627.19;;;-146.39;34.52
40460;BME280;26164;51.138;16.952;2023-12-20T03:46:11;74670.06;;;-146.39;34.67
40460;BME280;26164;51.138;16.952;2023-12-20T03:48:39;74721.06;;;-146.39;35.25
40460;BME280;26164;51.138;16.952;2023-12-20T03:51:07;74729.22;;;-146.39;35.33
40460;BME280;26164;51.138;16.952;2023-12-20T03:53:48;74892.47;;;-146.39;36.51
40460;BME280;26164;51.138;16.952;2023-12-20T03:56:15;74586.41;;;-146.39;34.21
40460;BME280;26164;51.138;16.952;2023-12-20T03:58:41;74574.16;;;-146.39;33.91
40460;BME280;26164;51.138;16.952;2023-12-20T04:01:11;74486.41;;;-146.39;33.72
40460;BME280;26164;51.138;16.952;2023-12-20T04:03:39;74555.78;;;-146.39;34.08
40460;BME280;26164;51.138;16.952;2023-12-20T04:06:06;74614.97;;;-146.39;34.23
40460;BME280;26164;51.138;16.952;2023-12-20T04:08:33;74645.56;;;-146.39;34.21
40460;BME280;26164;51.138;16.952;2023-12-20T04:10:59;74551.72;;;-146.39;33.60
40460;BME280;26164;51.138;16.952;2023-12-20T04:13:25;74678.22;;;-146.39;34.59
40460;BME280;26164;51.138;16.952;2023-12-20T04:15:55;74066.09;;;-146.39;30.42
40460;BME280;26164;51.138;16.952;2023-12-20T04:18:21;74139.56;;;-146.39;30.90
40460;BME280;26164;51.138;16.952;2023-12-20T04:20:49;74100.78;;;-146.39;30.43
40460;BME280;26164;51.138;16.952;2023-12-20T04:23:17;74184.44;;;-146.39;31.25
40460;BME280;26164;51.138;16.952;2023-12-20T04:25:58;74227.28;;;-146.39;31.41
40460;BME280;26164;51.138;16.952;2023-12-20T04:28:39;74068.13;;;-146.39;30.63
40460;BME280;26164;51.138;16.952;2023-12-20T04:31:20;74127.31;;;-146.39;30.97
40460;BME280;26164;51.138;16.952;2023-12-20T04:34:01;74164.03;;;-146.39;30.72
40460;BME280;26164;51.138;16.952;2023-12-20T04:36:43;74347.66;;;-146.39;32.65
40460;BME280;26164;51.138;16.952;2023-12-20T04:42:15;74135.47;;;-146.39;30.36
40460;BME280;26164;51.138;16.952;2023-12-20T04:44:57;74200.75;;;-146.39;31.37
40460;BME280;26164;51.138;16.952;2023-12-20T04:47:39;74041.63;;;-146.39;30.07
40460;BME280;26164;51.138;16.952;2023-12-20T04:50:20;74208.91;;;-146.39;31.07
40460;BME280;26164;51.138;16.952;2023-12-20T04:52:49;74184.44;;;-146.39;30.98
40460;BME280;26164;51.138;16.952;2023-12-20T04:55:16;74147.72;;;-146.39;31.07
40460;BME280;26164;51.138;16.952;2023-12-20T04:57:46;74200.75;;;-146.39;31.30
40460;BME280;26164;51.138;16.952;2023-12-20T05:03:47;74412.97;;;-146.39;32.59
40460;BME280;26164;51.138;16.952;2023-12-20T05:06:31;74388.47;;;-146.39;32.67
40460;BME280;26164;51.138;16.952;2023-12-20T05:09:16;74351.75;;;-146.39;32.27
40460;BME280;26164;51.138;16.952;2023-12-20T05:11:57;74282.38;;;-146.39;31.70
40460;BME280;26164;51.138;16.952;2023-12-20T05:14:40;74376.22;;;-146.39;32.30
40460;BME280;26164;51.138;16.952;2023-12-20T05:17:23;74331.34;;;-146.39;31.96
40460;BME280;26164;51.138;16.952;2023-12-20T05:19:55;74421.13;;;-146.39;32.79
40460;BME280;26164;51.138;16.952;2023-12-20T05:22:27;74445.59;;;-146.39;32.91
40460;BME280;26164;51.138;16.952;2023-12-20T05:25:09;74315.00;;;-146.39;31.95
40460;BME280;26164;51.138;16.952;2023-12-20T05:27:50;74264.00;;;-146.39;31.51
40460;BME280;26164;51.138;16.952;2023-12-20T05:30:34;74359.91;;;-146.39;31.99
40460;BME280;26164;51.138;16.952;2023-12-20T05:33:15;74417.03;;;-146.39;32.41
40460;BME280;26164;51.138;16.952;2023-12-20T05:35:56;74449.69;;;-146.39;32.55
40460;BME280;26164;51.138;16.952;2023-12-20T05:38:38;74429.28;;;-146.39;32.74
40460;BME280;26164;51.138;16.952;2023-12-20T05:41:19;74539.47;;;-146.39;33.88
40460;BME280;26164;51.138;16.952;2023-12-20T05:44:02;74490.50;;;-146.39;33.28
40460;BME280;26164;51.138;16.952;2023-12-20T05:46:36;74372.16;;;-146.39;32.50
40460;BME280;26164;51.138;16.952;2023-12-20T05:49:04;74351.75;;;-146.39;32.33
40460;BME280;26164;51.138;16.952;2023-12-20T05:51:46;74315.00;;;-146.39;31.94
40460;BME280;26164;51.138;16.952;2023-12-20T05:54:27;73413.28;;;-146.39;28.54
40460;BME280;26164;51.138;16.952;2023-12-20T05:56:56;73837.59;;;-146.39;28.78
40460;BME280;26164;51.138;16.952;2023-12-20T05:59:22;73935.53;;;-146.39;29.15
40460;BME280;26164;51.138;16.952;2023-12-20T06:11:13;73915.13;;;-146.39;29.30
40460;BME280;26164;51.138;16.952;2023-12-20T06:14:08;74172.19;;;-146.39;30.89
40460;BME280;26164;51.138;16.952;2023-12-20T06:16:34;74174.22;;;-146.39;30.84
40460;BME280;26164;51.138;16.952;2023-12-20T06:21:57;74131.38;;;-146.39;30.68
40460;BME280;26164;51.138;16.952;2023-12-20T06:24:40;74225.25;;;-146.39;31.10
40460;BME280;26164;51.138;16.952;2023-12-20T06:27:31;74221.16;;;-146.39;31.33
40460;BME280;26164;51.138;16.952;2023-12-20T06:30:17;74257.88;;;-146.39;31.14
40460;BME280;26164;51.138;16.952;2023-12-20T06:33:07;74241.56;;;-146.39;31.59
40460;BME280;26164;51.138;16.952;2023-12-20T06:35:53;74166.06;;;-146.39;30.83
40460;BME280;26164;51.138;16.952;2023-12-20T06:38:34;74198.72;;;-146.39;30.80
40460;BME280;26164;51.138;16.952;2023-12-20T06:41:05;74192.59;;;-146.39;30.66
40460;BME280;26164;51.138;16.952;2023-12-20T06:43:33;74257.88;;;-146.39;31.27
40460;BME280;26164;51.138;16.952;2023-12-20T06:46:18;74294.63;;;-146.39;31.73
40460;BME280;26164;51.138;16.952;2023-12-20T06:49:06;74331.34;;;-146.39;31.85
40460;BME280;26164;51.138;16.952;2023-12-20T06:51:49;74243.59;;;-146.39;31.71
40460;BME280;26164;51.138;16.952;2023-12-20T06:54:31;74474.16;;;-146.39;32.86
40460;BME280;26164;51.138;16.952;2023-12-20T06:57:16;74470.09;;;-146.39;32.82
40460;BME280;26164;51.138;16.952;2023-12-20T06:59:59;74306.84;;;-146.39;31.94
40460;BME280;26164;51.138;16.952;2023-12-20T07:03:03;74490.50;;;-146.39;33.34
40460;BME280;26164;51.138;16.952;2023-12-20T07:09:29;74431.31;;;-146.39;33.01
40460;BME280;26164;51.138;16.952;2023-12-20T07:12:17;74568.03;;;-146.39;33.59
40460;BME280;26164;51.138;16.952;2023-12-20T07:18:37;74366.03;;;-146.39;32.58
40460;BME280;26164;51.138;16.952;2023-12-20T07:36:43;74510.91;;;-146.39;33.14
40460;BME280;26164;51.138;16.952;2023-12-20T08:15:15;74637.41;;;-146.39;34.40
40460;BME280;26164;51.138;16.952;2023-12-20T08:18:27;74592.50;;;-146.39;33.94
40460;BME280;26164;51.138;16.952;2023-12-20T08:21:18;74663.94;;;-146.39;34.31
40460;BME280;26164;51.138;16.952;2023-12-20T08:24:01;74670.06;;;-146.39;34.39
40460;BME280;26164;51.138;16.952;2023-12-20T08:29:45;74594.56;;;-146.39;33.80
40460;BME280;26164;51.138;16.952;2023-12-20T08:49:20;74698.63;;;-146.39;34.02
40460;BME280;26164;51.138;16.952;2023-12-20T08:52:08;74604.75;;;-146.39;33.73
40460;BME280;26164;51.138;16.952;2023-12-20T08:54:51;74674.13;;;-146.39;33.79
40460;BME280;26164;51.138;16.952;2023-12-20T08:57:41;74698.63;;;-146.39;34.08
40460;BME280;26164;51.138;16.952;2023-12-20T09:00:29;74612.91;;;-146.39;33.67
40460;BME280;26164;51.138;16.952;2023-12-20T09:03:12;74741.47;;;-146.39;34.96
40460;BME280;26164;51.138;16.952;2023-12-20T09:05:56;74559.88;;;-146.39;33.42
40460;BME280;26164;51.138;16.952;2023-12-20T09:08:41;74572.09;;;-146.39;33.32
40460;BME280;26164;51.138;16.952;2023-12-20T09:11:24;74692.50;;;-146.39;34.26
40460;BME280;26164;51.138;16.952;2023-12-20T09:14:05;74668.00;;;-146.39;33.81
40460;BME280;26164;51.138;16.952;2023-12-20T09:16:50;74784.31;;;-146.39;34.56
40460;BME280;26164;51.138;16.952;2023-12-20T09:19:33;74553.75;;;-146.39;33.53
40460;BME280;26164;51.138;16.952;2023-12-20T09:22:15;74719.03;;;-146.39;34.25
40460;BME280;26164;51.138;16.952;2023-12-20T09:25:05;74466.00;;;-146.39;32.42
40460;BME280;26164;51.138;16.952;2023-12-20T09:27:55;74470.09;;;-146.39;32.35
40460;BME280;26164;51.138;16.952;2023-12-20T09:30:37;74586.41;;;-146.39;33.03
40460;BME280;26164;51.138;16.952;2023-12-20T09:37:08;74661.91;;;-146.39;33.94
40460;BME280;26164;51.138;16.952;2023-12-20T11:26:27;74366.03;;;-146.39;30.45
40460;BME280;26164;51.138;16.952;2023-12-20T11:29:42;74529.25;;;-146.39;31.32
40460;BME280;26164;51.138;16.952;2023-12-20T11:33:17;74476.22;;;-146.39;31.09
40460;BME280;26164;51.138;16.952;2023-12-20T11:37:57;74555.78;;;-146.39;31.62
40460;BME280;26164;51.138;16.952;2023-12-20T11:42:04;74633.31;;;-146.39;31.73
40460;BME280;26164;51.138;16.952;2023-12-20T11:44:52;74502.72;;;-146.39;31.25
40460;BME280;26164;51.138;16.952;2023-12-20T11:51:11;74551.72;;;-146.39;31.53
40460;BME280;26164;51.138;16.952;2023-12-20T11:54:32;74486.41;;;-146.39;31.03
40460;BME280;26164;51.138;16.952;2023-12-20T12:07:10;74496.63;;;-146.39;31.56
40460;BME280;26164;51.138;16.952;2023-12-20T12:42:37;74743.50;;;-146.39;32.79
40460;BME280;26164;51.138;16.952;2023-12-20T13:01:06;74547.63;;;-146.39;31.56
40460;BME280;26164;51.138;16.952;2023-12-20T13:25:09;74514.97;;;-146.39;31.27
40460;BME280;26164;51.138;16.952;2023-12-20T13:30:58;74508.84;;;-146.39;31.03
40460;BME280;26164;51.138;16.952;2023-12-20T13:33:47;74466.00;;;-146.39;30.55
40460;BME280;26164;51.138;16.952;2023-12-20T13:36:55;74425.19;;;-146.39;30.34
40460;BME280;26164;51.138;16.952;2023-12-20T13:43:26;74370.09;;;-146.39;29.89
40460;BME280;26164;51.138;16.952;2023-12-20T13:46:10;74439.47;;;-146.39;30.49
40460;BME280;26164;51.138;16.952;2023-12-20T20:38:56;74737.38;;;-146.39;32.85
40460;BME280;26164;51.138;16.952;2023-12-20T22:53:13;74714.94;;;-146.39;33.29
